createdAt,value
2023-01-07T00:01:37.712Z,21.02
2023-01-07T00:04:07.439Z,20.90
2023-01-07T00:06:36.634Z,18.42
2023-01-07T00:09:07.012Z,18.65
2023-01-07T00:11:39.985Z,17.77
2023-01-07T00:14:10.795Z,17.05
2023-01-07T00:16:39.153Z,20.75
2023-01-07T00:19:07.875Z,19.87
2023-01-07T00:21:35.387Z,18.10
2023-01-07T00:24:05.436Z,23.23
2023-01-07T00:26:37.846Z,21.25
2023-01-07T00:29:06.995Z,17.00
2023-01-07T00:31:37.095Z,19.77
2023-01-07T00:34:04.878Z,20.37
2023-01-07T00:36:44.291Z,16.87
2023-01-07T00:39:13.051Z,18.25
2023-01-07T00:41:41.092Z,17.65
2023-01-07T00:44:08.646Z,20.73
2023-01-07T00:46:36.126Z,19.62
2023-01-07T00:49:04.002Z,19.80
2023-01-07T00:51:31.479Z,24.23
2023-01-07T00:53:58.928Z,17.60
2023-01-07T00:56:26.722Z,23.02
2023-01-07T00:58:54.284Z,25.62
2023-01-07T01:01:21.966Z,22.02
2023-01-07T01:03:49.786Z,17.05
2023-01-07T01:06:17.281Z,18.35
2023-01-07T01:08:46.244Z,16.87
2023-01-07T01:11:15.634Z,23.73
2023-01-07T01:13:44.648Z,17.12
2023-01-07T01:16:15.232Z,17.75
2023-01-07T01:18:43.629Z,22.85
2023-01-07T01:21:14.545Z,24.75
2023-01-07T01:23:42.756Z,17.05
2023-01-07T01:26:14.104Z,19.30
2023-01-07T01:28:42.120Z,22.52
2023-01-07T01:31:10.956Z,16.10
2023-01-07T01:33:39.607Z,21.12
2023-01-07T01:36:10.375Z,21.52
2023-01-07T01:38:38.620Z,19.55
2023-01-07T01:41:06.868Z,24.17
2023-01-07T01:43:37.111Z,18.70
2023-01-07T01:46:27.320Z,15.65
2023-01-07T01:49:01.081Z,16.23
2023-01-07T01:51:34.746Z,20.27
2023-01-07T01:54:04.627Z,14.63
2023-01-07T01:56:35.601Z,15.57
2023-01-07T01:59:06.651Z,19.08
2023-01-07T02:01:36.932Z,22.25
2023-01-07T02:04:10.134Z,18.48
2023-01-07T02:06:42.242Z,17.95
2023-01-07T02:09:14.170Z,18.80
2023-01-07T02:12:01.184Z,17.80
2023-01-07T02:14:44.198Z,18.12
2023-01-07T02:17:33.395Z,16.08
2023-01-07T02:20:25.987Z,16.90
2023-01-07T02:23:08.776Z,16.02
2023-01-07T02:25:51.432Z,18.67
2023-01-07T02:29:01.376Z,24.60
2023-01-07T02:32:06.610Z,21.17
2023-01-07T02:34:52.909Z,20.10
2023-01-07T02:37:52.479Z,19.42
2023-01-07T02:40:20.323Z,18.80
2023-01-07T02:42:58.081Z,22.52
2023-01-07T02:45:48.364Z,19.58
2023-01-07T02:48:18.346Z,17.77
2023-01-07T02:50:46.193Z,18.42
2023-01-07T02:53:17.979Z,18.58
2023-01-07T02:56:07.638Z,16.02
2023-01-07T02:58:54.075Z,17.25
2023-01-07T03:01:31.272Z,22.30
2023-01-07T03:04:17.412Z,22.35
2023-01-07T03:07:46.675Z,20.08
2023-01-07T03:10:38.245Z,21.65
2023-01-07T03:13:17.853Z,21.45
2023-01-07T03:15:57.775Z,23.73
2023-01-07T03:18:29.023Z,21.48
2023-01-07T03:21:04.284Z,21.58
2023-01-07T03:23:32.699Z,20.67
2023-01-07T03:26:03.491Z,18.98
2023-01-07T03:28:36.175Z,19.83
2023-01-07T03:31:04.531Z,21.25
2023-01-07T03:34:00.690Z,24.83
2023-01-07T03:36:33.460Z,23.70
2023-01-07T03:39:01.939Z,25.12
2023-01-07T03:41:49.458Z,28.35
2023-01-07T03:44:16.955Z,23.85
2023-01-07T03:46:44.840Z,28.65
2023-01-07T03:49:12.876Z,24.80
2023-01-07T03:51:41.255Z,28.27
2023-01-07T03:54:09.155Z,29.37
2023-01-07T03:56:36.676Z,25.08
2023-01-07T03:59:04.237Z,24.58
2023-01-07T04:01:32.532Z,27.48
2023-01-07T04:04:03.102Z,24.67
2023-01-07T04:06:31.053Z,24.27
2023-01-07T04:08:59.010Z,24.73
2023-01-07T04:11:27.841Z,27.10
2023-01-07T04:13:57.174Z,24.05
2023-01-07T04:16:24.688Z,23.77
2023-01-07T04:18:52.453Z,21.40
2023-01-07T04:21:20.905Z,24.27
2023-01-07T04:23:48.344Z,23.90
2023-01-07T04:26:16.262Z,21.15
2023-01-07T04:28:43.928Z,25.62
2023-01-07T04:31:12.121Z,24.35
2023-01-07T04:33:40.695Z,24.73
2023-01-07T04:36:09.067Z,22.15
2023-01-07T04:38:37.769Z,25.75
2023-01-07T04:41:05.865Z,27.27
2023-01-07T04:43:35.304Z,31.20
2023-01-07T04:46:03.879Z,27.02
2023-01-07T04:48:31.758Z,27.23
2023-01-07T04:51:00.453Z,28.27
2023-01-07T04:53:28.174Z,22.05
2023-01-07T04:55:56.058Z,21.87
2023-01-07T04:58:23.981Z,23.42
2023-01-07T05:00:54.134Z,20.50
2023-01-07T05:03:22.778Z,20.73
2023-01-07T05:05:50.380Z,19.37
2023-01-07T05:08:18.282Z,22.80
2023-01-07T05:10:46.021Z,20.37
2023-01-07T05:13:17.844Z,20.15
2023-01-07T05:15:46.449Z,21.95
2023-01-07T05:18:14.697Z,25.17
2023-01-07T05:20:43.327Z,20.98
2023-01-07T05:23:11.417Z,23.00
2023-01-07T05:25:39.266Z,24.23
2023-01-07T05:28:06.714Z,26.30
2023-01-07T05:30:35.166Z,30.58
2023-01-07T05:33:07.194Z,27.00
2023-01-07T05:35:35.814Z,25.98
2023-01-07T05:38:03.501Z,23.73
2023-01-07T05:40:31.183Z,27.20
2023-01-07T05:42:58.923Z,26.70
2023-01-07T05:45:26.977Z,23.30
2023-01-07T05:47:54.434Z,26.25
2023-01-07T05:50:22.164Z,23.25
2023-01-07T05:52:51.313Z,24.37
2023-01-07T05:55:19.249Z,29.60
2023-01-07T05:57:47.187Z,23.40
2023-01-07T06:00:14.939Z,24.77
2023-01-07T06:02:45.792Z,22.98
2023-01-07T06:05:13.248Z,23.15
2023-01-07T06:07:40.723Z,20.50
2023-01-07T06:10:08.643Z,24.35
2023-01-07T06:12:36.088Z,25.85
2023-01-07T06:15:04.235Z,23.12
2023-01-07T06:17:31.996Z,21.67
2023-01-07T06:19:59.870Z,28.05
2023-01-07T06:22:27.352Z,22.35
2023-01-07T06:24:55.094Z,23.23
2023-01-07T06:27:22.590Z,22.42
2023-01-07T06:29:50.050Z,18.35
2023-01-07T06:32:17.854Z,23.65
2023-01-07T06:34:45.340Z,19.15
2023-01-07T06:37:14.944Z,19.40
2023-01-07T06:39:42.946Z,21.27
2023-01-07T06:42:10.527Z,24.10
2023-01-07T06:44:38.015Z,21.12
2023-01-07T06:50:12.958Z,18.55
2023-01-07T06:52:41.167Z,18.40
2023-01-07T06:55:09.205Z,18.77
2023-01-07T06:57:36.908Z,18.30
2023-01-07T07:00:05.249Z,17.25
2023-01-07T07:02:35.567Z,16.95
2023-01-07T07:05:03.342Z,21.30
2023-01-07T07:07:31.120Z,21.77
2023-01-07T07:09:58.733Z,20.90
2023-01-07T07:12:26.208Z,31.50
2023-01-07T07:14:53.955Z,30.35
2023-01-07T07:17:21.379Z,35.08
2023-01-07T07:19:49.940Z,34.70
2023-01-07T07:22:17.823Z,26.60
2023-01-07T07:24:45.462Z,25.60
2023-01-07T07:27:12.883Z,22.65
2023-01-07T07:29:40.674Z,24.55
2023-01-07T07:32:08.919Z,23.98
2023-01-07T07:34:36.460Z,21.95
2023-01-07T07:37:04.228Z,21.02
2023-01-07T07:39:31.808Z,21.50
2023-01-07T07:42:02.630Z,22.42
2023-01-07T07:44:31.773Z,22.42
2023-01-07T07:46:59.216Z,18.30
2023-01-07T07:49:27.120Z,19.40
2023-01-07T07:51:55.979Z,22.58
2023-01-07T07:54:24.072Z,17.80
2023-01-07T07:56:51.651Z,21.35
2023-01-07T07:59:19.575Z,18.87
2023-01-07T08:01:47.976Z,22.60
2023-01-07T08:04:16.233Z,19.42
2023-01-07T08:06:43.687Z,20.00
2023-01-07T08:09:11.445Z,18.25
2023-01-07T08:11:39.281Z,19.35
2023-01-07T08:14:06.790Z,18.33
2023-01-07T08:16:34.278Z,18.65
2023-01-07T08:19:02.126Z,20.15
2023-01-07T08:21:29.561Z,17.60
2023-01-07T08:23:56.985Z,20.33
2023-01-07T08:26:24.787Z,16.08
2023-01-07T08:28:52.262Z,16.67
2023-01-07T08:31:19.854Z,18.92
2023-01-07T08:33:47.637Z,20.40
2023-01-07T08:36:22.530Z,20.95
2023-01-07T08:38:52.484Z,20.45
2023-01-07T08:41:24.031Z,17.73
2023-01-07T08:43:53.305Z,17.55
2023-01-07T08:46:21.083Z,18.17
2023-01-07T08:48:49.758Z,15.82
2023-01-07T08:51:17.471Z,18.67
2023-01-07T08:53:44.935Z,17.58
2023-01-07T08:56:12.433Z,18.30
2023-01-07T08:58:40.359Z,17.92
2023-01-07T09:01:09.057Z,18.27
2023-01-07T09:03:36.533Z,19.30
2023-01-07T09:06:04.492Z,15.43
2023-01-07T09:08:32.177Z,14.30
2023-01-07T09:10:59.580Z,14.65
2023-01-07T09:13:27.509Z,17.33
2023-01-07T09:15:54.978Z,19.08
2023-01-07T09:18:22.455Z,16.25
2023-01-07T09:20:50.932Z,13.52
2023-01-07T09:23:18.387Z,13.62
2023-01-07T09:25:45.854Z,12.60
2023-01-07T09:28:13.583Z,19.42
2023-01-07T09:30:41.047Z,14.75
2023-01-07T09:33:08.466Z,15.52
2023-01-07T09:35:36.268Z,13.57
2023-01-07T09:38:03.773Z,13.62
2023-01-07T09:40:40.949Z,12.77
2023-01-07T09:43:18.195Z,13.60
2023-01-07T09:46:06.172Z,14.65
2023-01-07T09:48:45.849Z,17.75
2023-01-07T09:51:24.073Z,15.10
2023-01-07T09:53:54.505Z,18.83
2023-01-07T09:56:28.769Z,16.90
2023-01-07T09:58:58.086Z,14.20
2023-01-07T10:01:34.914Z,16.30
2023-01-07T10:04:27.057Z,15.80
2023-01-07T10:07:31.289Z,16.35
2023-01-07T10:10:28.850Z,15.65
2023-01-07T10:13:28.060Z,13.90
2023-01-07T10:15:58.679Z,15.40
2023-01-07T10:18:33.328Z,16.05
2023-01-07T10:21:43.086Z,15.82
2023-01-07T10:24:21.986Z,13.05
2023-01-07T10:26:52.285Z,19.90
2023-01-07T10:29:28.810Z,17.12
2023-01-07T10:31:59.934Z,104.43
2023-01-07T10:34:36.408Z,24.73
2023-01-07T10:37:13.981Z,19.95
2023-01-07T10:40:11.878Z,16.65
2023-01-07T10:42:41.560Z,13.90
2023-01-07T10:45:18.206Z,16.00
2023-01-07T10:48:17.603Z,15.32
2023-01-07T10:51:08.380Z,15.90
2023-01-07T10:53:57.536Z,13.55
2023-01-07T10:56:29.315Z,16.25
2023-01-07T10:58:57.499Z,13.23
2023-01-07T11:01:27.472Z,11.35
2023-01-07T11:03:57.065Z,11.57
2023-01-07T11:06:34.666Z,10.52
2023-01-07T11:09:05.351Z,14.23
2023-01-07T11:11:33.701Z,11.90
2023-01-07T11:14:10.545Z,14.23
2023-01-07T11:16:49.451Z,13.23
2023-01-07T11:19:17.356Z,17.00
2023-01-07T11:21:48.660Z,19.83
2023-01-07T11:24:27.241Z,20.70
2023-01-07T11:27:14.373Z,22.02
2023-01-07T11:29:46.867Z,21.73
2023-01-07T11:32:26.213Z,23.40
2023-01-07T11:35:02.262Z,25.92
2023-01-07T11:37:38.503Z,22.67
2023-01-07T11:40:27.398Z,23.75
2023-01-07T11:42:59.770Z,25.08
2023-01-07T11:46:21.250Z,28.83
2023-01-07T11:48:38.792Z,27.58
2023-01-07T11:51:10.297Z,23.42
2023-01-07T11:53:39.868Z,20.70
2023-01-07T11:56:12.899Z,22.67
2023-01-07T11:58:46.929Z,18.98
2023-01-07T12:01:18.781Z,17.17
2023-01-07T12:03:55.334Z,19.62
2023-01-07T12:06:34.067Z,19.10
2023-01-07T12:09:17.966Z,20.05
2023-01-07T12:11:46.071Z,19.58
2023-01-07T12:14:16.927Z,23.90
2023-01-07T12:16:45.290Z,21.77
2023-01-07T12:19:19.393Z,24.30
2023-01-07T12:22:19.696Z,20.15
2023-01-07T12:24:47.149Z,20.62
2023-01-07T12:27:20.523Z,20.12
2023-01-07T12:30:06.710Z,18.17
2023-01-07T12:32:40.138Z,19.42
2023-01-07T12:35:32.402Z,16.87
2023-01-07T12:38:04.987Z,17.85
2023-01-07T12:40:46.999Z,16.42
2023-01-07T12:43:29.014Z,15.27
2023-01-07T12:46:00.470Z,16.92
2023-01-07T12:49:12.744Z,15.45
2023-01-07T12:51:51.639Z,16.23
2023-01-07T12:54:33.772Z,19.00
2023-01-07T12:57:08.733Z,16.35
2023-01-07T12:59:47.055Z,17.23
2023-01-07T13:02:37.648Z,16.17
2023-01-07T13:05:15.889Z,17.15
2023-01-07T13:07:52.827Z,15.45
2023-01-07T13:10:33.253Z,14.87
2023-01-07T13:13:03.523Z,13.10
2023-01-07T13:15:33.992Z,12.60
2023-01-07T13:18:10.550Z,12.23
2023-01-07T13:20:41.097Z,15.00
2023-01-07T13:23:18.305Z,13.50
2023-01-07T13:26:11.314Z,14.60
2023-01-07T13:28:57.629Z,15.63
2023-01-07T13:31:35.745Z,12.93
2023-01-07T13:34:21.970Z,13.73
2023-01-07T13:37:26.089Z,16.40
2023-01-07T13:40:41.268Z,15.52
2023-01-07T13:43:22.522Z,14.73
2023-01-07T13:45:56.188Z,15.63
2023-01-07T13:48:26.352Z,16.40
2023-01-07T13:50:59.601Z,16.05
2023-01-07T13:53:27.241Z,17.50
2023-01-07T13:56:17.332Z,15.52
2023-01-07T13:58:45.931Z,18.98
2023-01-07T14:01:27.411Z,20.45
2023-01-07T14:03:58.833Z,19.00
2023-01-07T14:06:42.661Z,22.20
2023-01-07T14:09:18.744Z,21.23
2023-01-07T14:12:07.972Z,20.92
2023-01-07T14:14:54.081Z,19.00
2023-01-07T14:18:09.525Z,18.98
2023-01-07T14:20:49.724Z,18.10
2023-01-07T14:23:55.589Z,17.42
2023-01-07T14:26:49.659Z,16.98
2023-01-07T14:29:17.452Z,16.42
2023-01-07T14:31:46.136Z,17.37
2023-01-07T14:34:21.078Z,17.75
2023-01-07T14:37:01.028Z,16.42
2023-01-07T14:39:32.461Z,12.37
2023-01-07T14:42:18.984Z,14.05
2023-01-07T14:44:50.780Z,11.50
2023-01-07T14:47:43.530Z,14.38
2023-01-07T14:50:19.076Z,15.88
2023-01-07T14:53:16.340Z,15.30
2023-01-07T14:56:02.289Z,12.73
2023-01-07T14:58:47.078Z,15.65
2023-01-07T15:01:28.951Z,19.10
2023-01-07T15:04:38.251Z,18.85
2023-01-07T15:07:15.220Z,19.33
2023-01-07T15:10:05.351Z,23.70
2023-01-07T15:13:13.780Z,18.77
2023-01-07T15:16:01.350Z,21.48
2023-01-07T15:18:35.099Z,22.25
2023-01-07T15:21:13.062Z,29.90
2023-01-07T15:24:14.910Z,24.87
2023-01-07T15:26:51.804Z,33.15
2023-01-07T15:29:28.213Z,30.90
2023-01-07T15:32:05.261Z,36.85
2023-01-07T15:34:33.414Z,37.40
2023-01-07T15:37:05.140Z,31.15
2023-01-07T15:39:34.839Z,28.02
2023-01-07T15:42:03.702Z,25.20
2023-01-07T15:44:40.741Z,24.77
2023-01-07T15:47:42.322Z,22.30
2023-01-07T15:50:36.599Z,28.98
2023-01-07T15:53:10.695Z,25.20
2023-01-07T15:56:06.809Z,25.27
2023-01-07T15:58:38.162Z,23.15
2023-01-07T16:01:07.165Z,24.12
2023-01-07T16:03:38.229Z,25.27
2023-01-07T16:06:25.980Z,26.67
2023-01-07T16:08:53.781Z,27.60
2023-01-07T16:11:26.914Z,27.37
2023-01-07T16:13:56.900Z,34.40
2023-01-07T16:16:26.250Z,31.85
2023-01-07T16:18:59.100Z,30.52
2023-01-07T16:21:39.232Z,29.75
2023-01-07T16:24:07.074Z,28.12
2023-01-07T16:26:50.649Z,30.60
2023-01-07T16:29:27.366Z,28.65
2023-01-07T16:31:56.161Z,33.50
2023-01-07T16:34:23.517Z,29.02
2023-01-07T16:36:58.234Z,29.40
2023-01-07T16:39:28.970Z,29.58
2023-01-07T16:42:19.980Z,29.25
2023-01-07T16:44:49.602Z,28.70
2023-01-07T16:47:23.725Z,31.17
2023-01-07T16:49:56.609Z,29.02
2023-01-07T16:52:31.891Z,28.95
2023-01-07T16:55:00.126Z,31.75
2023-01-07T16:57:34.281Z,26.83
2023-01-07T17:00:04.256Z,27.05
2023-01-07T17:02:34.394Z,28.17
2023-01-07T17:05:15.027Z,27.87
2023-01-07T17:08:05.174Z,30.12
2023-01-07T17:10:38.307Z,33.58
2023-01-07T17:13:05.835Z,28.20
2023-01-07T17:15:33.641Z,32.97
2023-01-07T17:18:13.276Z,25.90
2023-01-07T17:20:49.329Z,30.52
2023-01-07T17:23:26.485Z,33.10
2023-01-07T17:26:05.634Z,29.55
2023-01-07T17:28:36.051Z,33.05
2023-01-07T17:31:03.945Z,32.22
2023-01-07T17:33:31.558Z,34.17
2023-01-07T17:35:59.558Z,34.53
2023-01-07T17:38:28.698Z,36.83
2023-01-07T17:40:56.163Z,35.75
2023-01-07T17:43:35.174Z,37.17
2023-01-07T17:46:11.987Z,32.67
2023-01-07T17:48:40.199Z,39.13
2023-01-07T17:51:10.159Z,39.58
2023-01-07T17:53:43.868Z,41.42
2023-01-07T17:56:11.752Z,40.70
2023-01-07T17:58:41.233Z,40.08
2023-01-07T18:01:11.452Z,33.80
2023-01-07T18:03:40.205Z,36.05
2023-01-07T18:06:17.699Z,38.65
2023-01-07T18:08:46.752Z,43.13
2023-01-07T18:11:36.050Z,45.03
2023-01-07T18:14:04.399Z,43.58
2023-01-07T18:16:33.071Z,42.92
2023-01-07T18:19:00.885Z,45.83
2023-01-07T18:21:28.707Z,50.40
2023-01-07T18:23:56.392Z,44.03
2023-01-07T18:26:24.920Z,43.08
2023-01-07T18:28:52.718Z,49.65
2023-01-07T18:31:20.338Z,43.72
2023-01-07T18:33:48.284Z,42.92
2023-01-07T18:36:16.841Z,45.90
2023-01-07T18:38:45.207Z,40.67
2023-01-07T18:41:12.815Z,40.55
2023-01-07T18:43:40.589Z,43.87
2023-01-07T18:46:09.710Z,41.88
2023-01-07T18:48:38.029Z,44.95
2023-01-07T18:51:10.510Z,42.22
2023-01-07T18:53:39.039Z,42.75
2023-01-07T18:56:11.901Z,39.65
2023-01-07T18:58:39.595Z,46.75
2023-01-07T19:01:08.535Z,44.55
2023-01-07T19:03:39.304Z,40.03
2023-01-07T19:06:08.711Z,44.88
2023-01-07T19:08:36.340Z,47.00
2023-01-07T19:11:13.359Z,42.47
2023-01-07T19:13:41.535Z,41.25
2023-01-07T19:16:13.079Z,42.30
2023-01-07T19:18:41.106Z,44.35
2023-01-07T19:21:11.009Z,40.35
2023-01-07T19:23:38.499Z,41.55
2023-01-07T19:26:08.352Z,47.45
2023-01-07T19:28:36.053Z,47.38
2023-01-07T19:31:07.880Z,50.15
2023-01-07T19:33:36.167Z,41.15
2023-01-07T19:36:05.189Z,47.70
2023-01-07T19:38:32.828Z,45.97
2023-01-07T19:41:00.622Z,46.65
2023-01-07T19:43:30.972Z,45.60
2023-01-07T19:45:58.514Z,47.85
2023-01-07T19:48:28.609Z,48.17
2023-01-07T19:50:57.843Z,50.90
2023-01-07T19:53:25.600Z,42.97
2023-01-07T19:55:54.442Z,41.95
2023-01-07T19:58:22.009Z,46.33
2023-01-07T20:00:49.630Z,42.90
2023-01-07T20:03:17.404Z,47.88
2023-01-07T20:05:44.871Z,40.75
2023-01-07T20:13:27.781Z,44.75
2023-01-07T20:15:55.486Z,38.90
2023-01-07T20:18:23.257Z,39.67
2023-01-07T20:20:58.045Z,42.58
2023-01-07T20:23:27.016Z,42.80
2023-01-07T20:25:54.502Z,51.22
2023-01-07T20:28:23.314Z,40.90
2023-01-07T20:30:52.617Z,43.70
2023-01-07T20:33:20.093Z,42.42
2023-01-07T20:35:47.579Z,42.50
2023-01-07T20:38:15.794Z,41.20
2023-01-07T20:40:58.751Z,41.28
2023-01-07T20:43:26.566Z,43.65
2023-01-07T20:45:58.587Z,41.65
2023-01-07T20:48:27.046Z,40.65
2023-01-07T20:50:55.037Z,45.28
2023-01-07T20:53:23.394Z,46.03
2023-01-07T20:55:58.383Z,48.42
2023-01-07T20:58:26.927Z,40.05
2023-01-07T21:00:54.768Z,41.53
2023-01-07T21:03:22.262Z,40.42
2023-01-07T21:05:49.797Z,42.78
2023-01-07T21:08:17.536Z,43.28
2023-01-07T21:10:44.993Z,41.00
2023-01-07T21:13:12.978Z,39.13
2023-01-07T21:15:41.060Z,44.85
2023-01-07T21:18:08.547Z,42.42
2023-01-07T21:20:36.085Z,43.60
2023-01-07T21:23:03.813Z,47.13
2023-01-07T21:25:31.272Z,55.10
2023-01-07T21:27:59.179Z,45.80
2023-01-07T21:30:30.504Z,46.00
2023-01-07T21:32:59.092Z,41.42
2023-01-07T21:35:26.855Z,43.97
2023-01-07T21:37:54.847Z,51.53
2023-01-07T21:40:22.531Z,46.00
2023-01-07T21:42:50.249Z,51.13
2023-01-07T21:45:17.720Z,52.62
2023-01-07T21:47:45.196Z,44.83
2023-01-07T21:50:15.047Z,46.88
2023-01-07T21:52:42.601Z,46.40
2023-01-07T21:55:10.437Z,43.30
2023-01-07T21:57:38.794Z,47.22
2023-01-07T22:00:07.488Z,48.92
2023-01-07T22:02:39.555Z,48.60
2023-01-07T22:05:07.967Z,42.75
2023-01-07T22:07:35.405Z,46.53
2023-01-07T22:10:03.218Z,48.15
2023-01-07T22:12:31.141Z,58.53
2023-01-07T22:14:58.547Z,48.55
2023-01-07T22:17:26.772Z,52.83
2023-01-07T22:19:54.550Z,49.35
2023-01-07T22:22:22.052Z,48.53
2023-01-07T22:24:49.463Z,52.20
2023-01-07T22:27:17.382Z,53.95
2023-01-07T22:29:44.939Z,50.60
2023-01-07T22:32:12.371Z,50.83
2023-01-07T22:34:40.198Z,52.75
2023-01-07T22:37:11.587Z,49.65
2023-01-07T22:39:47.237Z,49.97
2023-01-07T22:42:21.424Z,59.75
2023-01-07T22:44:51.633Z,57.30
2023-01-07T22:47:22.493Z,53.85
2023-01-07T22:49:50.964Z,53.87
2023-01-07T22:52:18.746Z,53.60
2023-01-07T22:54:46.275Z,50.38
2023-01-07T22:57:14.051Z,48.75
2023-01-07T22:59:41.911Z,50.10
2023-01-07T23:02:09.868Z,51.63
2023-01-07T23:04:37.360Z,55.72
2023-01-07T23:07:05.195Z,54.65
2023-01-07T23:09:32.692Z,53.40
2023-01-07T23:12:00.911Z,53.03
2023-01-07T23:14:29.797Z,55.25
2023-01-07T23:16:57.517Z,52.20
2023-01-07T23:19:24.971Z,57.00
2023-01-07T23:21:53.650Z,62.35
2023-01-07T23:24:22.300Z,57.00
2023-01-07T23:26:52.481Z,55.30
2023-01-07T23:29:21.051Z,50.92
2023-01-07T23:31:48.617Z,56.25
2023-01-07T23:34:16.458Z,55.25
2023-01-07T23:36:47.922Z,54.38
2023-01-07T23:39:15.449Z,51.55
2023-01-07T23:41:42.957Z,56.95
2023-01-07T23:44:10.963Z,53.10
2023-01-07T23:46:38.399Z,61.58
2023-01-07T23:49:05.895Z,49.83
2023-01-07T23:51:33.627Z,57.17
2023-01-07T23:54:01.064Z,52.38
2023-01-07T23:56:28.539Z,58.17
2023-01-07T23:58:56.278Z,49.33
